Grandview, TX

8:32 PM CDT on April 24, 2015 (GMT -0500)
Hillsboro | | Change Station
CLOSE
Current Station
Airport
Location: Hillsboro,
Elevation: 686 ft
Nearby Weather Stations
Active Advisory: Tornado Warning Active Notice: Local Storm Report

Elev 686 ft 32.08 °N, 97.10 °W | Updated 17 minutes ago

Partly Cloudy
Partly Cloudy
67 °F
Feels Like 67 °F
N
8
Wind Variable Wind from SW

Today
High -- | Low -- °F
--% Chance of Precip.
Yesterday
High -- | Low -- °F
Precip. -- in
6:49 AM 8:04 PM
Waxing Crescent, 41% visible
Pressure 29.69 in
Visibility 10.0 miles
Clouds Scattered Clouds 2400 ft
Scattered Clouds 3600 ft
Scattered Clouds 4500 ft
Dew Point 63 °F
Humidity 87%
Rainfall 0.99 in
Snow Depth Not available.
UV 0 out of 12
Pollen 7.00 out of 12
Air Quality Not available.
Flu Activity Local Activity
METAR KINJ 250115Z AUTO 22007KT 10SM -VCTSDZ SCT024 SCT036 SCT045 19/17 A2969 RMK AO2 LTG DSNT ALQS T01920170

More Conditions Fewer Conditions

Pressure 29.69 in
Visibility 10.0 miles
Clouds Scattered Clouds 2400 ft
Scattered Clouds 3600 ft
Scattered Clouds 4500 ft
Dew Point 63 °F
Humidity 87%
Rainfall 0.99 in
Snow Depth Not available.
UV 0 out of 12
Pollen 7.00 out of 12
Air Quality Not available.
Flu Activity Local Activity
METAR KINJ 250115Z AUTO 22007KT 10SM -VCTSDZ SCT024 SCT036 SCT045 19/17 A2969 RMK AO2 LTG DSNT ALQS T01920170

More Conditions Fewer Conditions

There is an enhanced risk of severe weather for parts of Texas, Louisiana, southern Arkansas, and Kansas. A slight risk of severe weather encompasses a wide area of the Plains and Lower Mississippi Valley as well. This means severe thunderstorms will be capable of producing strong wind, large hail, heavy rain, and the possibility of tornadoes into the evening.

10-Day Weather Forecast

Almanac

Astronomy

Apr. 24, 2015 Rise Set
Actual Time
Civil Twilight
Nautical Twilight
Astronomical Twilight
Moon
Length of Visible Light
Length of Day
Tomorrow will be .
, % of the Moon is Illuminated

Today's Extremes

State Highs State Lows

Community

WunderPhotos

Upload Photos

1,816,551 photos uploaded!

WunderBlogs® & News

Nearby

Air Quality

  Air Quality AQ Index Pollutant
Not available.

Snow Depth

Station Depth Elevation

Earthquake Activity

City Distance Mag. Time & Date
Minimum magnitude displayed is 2.5.

Coastal Water Temperatures

Place Temperature

Stations

Nearby Weather Stations

Station Location Temp. Windchill Dew Point Humidity Wind Precip. Elev Updated Type
                   
Tornado Warning
Statement as of 7:00 PM CDT on April 24, 2015

... The Tornado Warning for northeastern Johnson County is
cancelled...

the tornadic thunderstorm which prompted the warning has moved east
of the County and therefore the warning has been cancelled.

A Tornado Watch remains in effect until 1000 PM CDT for north central
Texas.

Lat... Lon 3241 9692 3255 9692 3254 9670 3237 9669
time... Mot... loc 2359z 269deg 49kt 3245 9684